sensor_id;sensor_type;location;lat;lon;timestamp;temperature;humidity
14099;DHT22;7126;48.458;7.930;2022-09-30T00:00:42;12.10;99.90
14099;DHT22;7126;48.458;7.930;2022-09-30T00:03:07;12.10;99.90
14099;DHT22;7126;48.458;7.930;2022-09-30T00:05:33;12.10;99.90
14099;DHT22;7126;48.458;7.930;2022-09-30T00:07:58;12.10;99.90
14099;DHT22;7126;48.458;7.930;2022-09-30T00:10:24;12.10;99.90
14099;DHT22;7126;48.458;7.930;2022-09-30T00:12:53;12.10;99.90
14099;DHT22;7126;48.458;7.930;2022-09-30T00:15:19;12.10;99.90
14099;DHT22;7126;48.458;7.930;2022-09-30T00:17:44;12.10;99.90
14099;DHT22;7126;48.458;7.930;2022-09-30T00:20:10;12.10;99.90
14099;DHT22;7126;48.458;7.930;2022-09-30T00:22:35;12.10;99.90
14099;DHT22;7126;48.458;7.930;2022-09-30T00:25:02;12.00;99.90
14099;DHT22;7126;48.458;7.930;2022-09-30T00:27:28;12.00;99.90
14099;DHT22;7126;48.458;7.930;2022-09-30T00:29:53;12.00;99.90
14099;DHT22;7126;48.458;7.930;2022-09-30T00:32:19;12.00;99.90
14099;DHT22;7126;48.458;7.930;2022-09-30T00:34:44;12.00;99.90
14099;DHT22;7126;48.458;7.930;2022-09-30T00:37:10;12.00;99.90
14099;DHT22;7126;48.458;7.930;2022-09-30T00:39:39;12.00;99.90
14099;DHT22;7126;48.458;7.930;2022-09-30T00:42:09;11.90;99.90
14099;DHT22;7126;48.458;7.930;2022-09-30T00:45:02;11.90;99.90
14099;DHT22;7126;48.458;7.930;2022-09-30T00:50:29;11.90;99.90
14099;DHT22;7126;48.458;7.930;2022-09-30T00:55:54;11.80;99.90
14099;DHT22;7126;48.458;7.930;2022-09-30T00:58:42;11.70;99.90
14099;DHT22;7126;48.458;7.930;2022-09-30T01:01:08;11.60;99.90
14099;DHT22;7126;48.458;7.930;2022-09-30T01:03:41;11.70;99.90
14099;DHT22;7126;48.458;7.930;2022-09-30T01:06:07;11.70;99.90
14099;DHT22;7126;48.458;7.930;2022-09-30T01:08:36;11.60;99.90
14099;DHT22;7126;48.458;7.930;2022-09-30T01:11:02;11.50;99.90
14099;DHT22;7126;48.458;7.930;2022-09-30T01:13:30;11.50;99.90
14099;DHT22;7126;48.458;7.930;2022-09-30T01:19:12;11.50;99.90
14099;DHT22;7126;48.458;7.930;2022-09-30T01:22:12;11.50;99.90
14099;DHT22;7126;48.458;7.930;2022-09-30T01:30:06;11.50;99.90
14099;DHT22;7126;48.458;7.930;2022-09-30T01:32:43;11.50;99.90
14099;DHT22;7126;48.458;7.930;2022-09-30T01:38:05;11.50;99.90
14099;DHT22;7126;48.458;7.930;2022-09-30T01:40:39;11.50;99.90
14099;DHT22;7126;48.458;7.930;2022-09-30T01:48:39;11.60;99.90
14099;DHT22;7126;48.458;7.930;2022-09-30T01:51:14;11.60;99.90
14099;DHT22;7126;48.458;7.930;2022-09-30T01:53:47;11.50;99.90
14099;DHT22;7126;48.458;7.930;2022-09-30T01:56:17;11.50;99.90
14099;DHT22;7126;48.458;7.930;2022-09-30T01:58:49;11.60;99.90
14099;DHT22;7126;48.458;7.930;2022-09-30T02:01:22;11.60;99.90
14099;DHT22;7126;48.458;7.930;2022-09-30T02:03:55;11.60;99.90
14099;DHT22;7126;48.458;7.930;2022-09-30T02:06:29;11.60;99.90
14099;DHT22;7126;48.458;7.930;2022-09-30T02:09:01;11.60;99.90
14099;DHT22;7126;48.458;7.930;2022-09-30T02:11:31;11.50;99.90
14099;DHT22;7126;48.458;7.930;2022-09-30T02:14:03;11.50;99.90
14099;DHT22;7126;48.458;7.930;2022-09-30T02:16:39;11.60;99.90
14099;DHT22;7126;48.458;7.930;2022-09-30T02:21:44;11.60;99.90
14099;DHT22;7126;48.458;7.930;2022-09-30T02:24:15;11.70;99.90
14099;DHT22;7126;48.458;7.930;2022-09-30T02:26:43;11.70;99.90
14099;DHT22;7126;48.458;7.930;2022-09-30T02:29:17;11.70;99.90
14099;DHT22;7126;48.458;7.930;2022-09-30T02:31:48;11.80;99.90
14099;DHT22;7126;48.458;7.930;2022-09-30T02:34:39;11.80;99.90
14099;DHT22;7126;48.458;7.930;2022-09-30T02:37:18;11.80;99.90
14099;DHT22;7126;48.458;7.930;2022-09-30T02:39:56;11.90;99.90
14099;DHT22;7126;48.458;7.930;2022-09-30T02:42:26;11.80;99.90
14099;DHT22;7126;48.458;7.930;2022-09-30T02:44:56;11.80;99.90
14099;DHT22;7126;48.458;7.930;2022-09-30T02:47:41;11.80;99.90
14099;DHT22;7126;48.458;7.930;2022-09-30T02:53:26;11.70;99.90
14099;DHT22;7126;48.458;7.930;2022-09-30T02:56:16;11.70;99.90
14099;DHT22;7126;48.458;7.930;2022-09-30T02:58:45;11.70;99.90
14099;DHT22;7126;48.458;7.930;2022-09-30T03:01:13;11.60;99.90
14099;DHT22;7126;48.458;7.930;2022-09-30T03:03:49;11.60;99.90
14099;DHT22;7126;48.458;7.930;2022-09-30T03:06:16;11.60;99.90
14099;DHT22;7126;48.458;7.930;2022-09-30T03:08:42;11.60;99.90
14099;DHT22;7126;48.458;7.930;2022-09-30T03:11:16;11.70;99.90
14099;DHT22;7126;48.458;7.930;2022-09-30T03:17:09;11.70;99.90
14099;DHT22;7126;48.458;7.930;2022-09-30T03:25:19;11.70;99.90
14099;DHT22;7126;48.458;7.930;2022-09-30T03:28:07;11.70;99.90
14099;DHT22;7126;48.458;7.930;2022-09-30T03:30:44;11.70;99.90
14099;DHT22;7126;48.458;7.930;2022-09-30T03:33:44;11.70;99.90
14099;DHT22;7126;48.458;7.930;2022-09-30T03:36:21;11.70;99.90
14099;DHT22;7126;48.458;7.930;2022-09-30T03:39:01;11.70;99.90
14099;DHT22;7126;48.458;7.930;2022-09-30T03:44:27;11.70;99.90
14099;DHT22;7126;48.458;7.930;2022-09-30T03:46:58;11.70;99.90
14099;DHT22;7126;48.458;7.930;2022-09-30T03:49:36;11.60;99.90
14099;DHT22;7126;48.458;7.930;2022-09-30T03:52:07;11.60;99.90
14099;DHT22;7126;48.458;7.930;2022-09-30T03:54:46;11.60;99.90
14099;DHT22;7126;48.458;7.930;2022-09-30T03:57:13;11.50;99.90
14099;DHT22;7126;48.458;7.930;2022-09-30T03:59:39;11.60;99.90
14099;DHT22;7126;48.458;7.930;2022-09-30T04:02:04;11.60;99.90
14099;DHT22;7126;48.458;7.930;2022-09-30T04:04:33;11.70;99.90
14099;DHT22;7126;48.458;7.930;2022-09-30T04:06:59;11.70;99.90
14099;DHT22;7126;48.458;7.930;2022-09-30T04:09:24;11.70;99.90
14099;DHT22;7126;48.458;7.930;2022-09-30T04:11:51;11.60;99.90
14099;DHT22;7126;48.458;7.930;2022-09-30T04:14:17;11.60;99.90
14099;DHT22;7126;48.458;7.930;2022-09-30T04:16:42;11.60;99.90
14099;DHT22;7126;48.458;7.930;2022-09-30T04:19:08;11.60;99.90
14099;DHT22;7126;48.458;7.930;2022-09-30T04:21:33;11.50;99.90
14099;DHT22;7126;48.458;7.930;2022-09-30T04:23:59;11.50;99.90
14099;DHT22;7126;48.458;7.930;2022-09-30T04:26:25;11.50;99.90
14099;DHT22;7126;48.458;7.930;2022-09-30T04:28:51;11.50;99.90
14099;DHT22;7126;48.458;7.930;2022-09-30T04:31:17;11.50;99.90
14099;DHT22;7126;48.458;7.930;2022-09-30T04:33:45;11.50;99.90
14099;DHT22;7126;48.458;7.930;2022-09-30T04:36:11;11.50;99.90
14099;DHT22;7126;48.458;7.930;2022-09-30T04:38:36;11.60;99.90
14099;DHT22;7126;48.458;7.930;2022-09-30T04:41:04;11.50;99.90
14099;DHT22;7126;48.458;7.930;2022-09-30T04:43:30;11.40;99.90
14099;DHT22;7126;48.458;7.930;2022-09-30T04:45:55;11.40;99.90
14099;DHT22;7126;48.458;7.930;2022-09-30T04:48:23;11.30;99.90
14099;DHT22;7126;48.458;7.930;2022-09-30T04:50:49;11.30;99.90
14099;DHT22;7126;48.458;7.930;2022-09-30T04:53:15;11.40;99.90
14099;DHT22;7126;48.458;7.930;2022-09-30T04:55:41;11.50;99.90
14099;DHT22;7126;48.458;7.930;2022-09-30T04:58:07;11.50;99.90
14099;DHT22;7126;48.458;7.930;2022-09-30T05:00:33;11.50;99.90
14099;DHT22;7126;48.458;7.930;2022-09-30T05:02:59;11.50;99.90
14099;DHT22;7126;48.458;7.930;2022-09-30T05:05:24;11.60;99.90
14099;DHT22;7126;48.458;7.930;2022-09-30T05:07:50;11.50;99.90
14099;DHT22;7126;48.458;7.930;2022-09-30T05:10:16;11.40;99.90
14099;DHT22;7126;48.458;7.930;2022-09-30T05:12:41;11.50;99.90
14099;DHT22;7126;48.458;7.930;2022-09-30T05:15:08;11.50;99.90
14099;DHT22;7126;48.458;7.930;2022-09-30T05:17:34;11.50;99.90
14099;DHT22;7126;48.458;7.930;2022-09-30T05:20:00;11.50;99.90
14099;DHT22;7126;48.458;7.930;2022-09-30T05:22:26;11.50;99.90
14099;DHT22;7126;48.458;7.930;2022-09-30T05:24:53;11.50;99.90
14099;DHT22;7126;48.458;7.930;2022-09-30T05:27:21;11.50;99.90
14099;DHT22;7126;48.458;7.930;2022-09-30T05:29:47;11.50;99.90
14099;DHT22;7126;48.458;7.930;2022-09-30T05:32:13;11.50;99.90
14099;DHT22;7126;48.458;7.930;2022-09-30T05:34:38;11.50;99.90
14099;DHT22;7126;48.458;7.930;2022-09-30T05:37:05;11.60;99.90
14099;DHT22;7126;48.458;7.930;2022-09-30T05:39:31;11.50;99.90
14099;DHT22;7126;48.458;7.930;2022-09-30T05:41:57;11.60;99.90
14099;DHT22;7126;48.458;7.930;2022-09-30T05:44:23;11.60;99.90
14099;DHT22;7126;48.458;7.930;2022-09-30T05:46:49;11.60;99.90
14099;DHT22;7126;48.458;7.930;2022-09-30T05:49:14;11.70;99.90
14099;DHT22;7126;48.458;7.930;2022-09-30T05:51:40;11.60;99.90
14099;DHT22;7126;48.458;7.930;2022-09-30T05:54:06;11.60;99.90
14099;DHT22;7126;48.458;7.930;2022-09-30T05:56:32;11.50;99.90
14099;DHT22;7126;48.458;7.930;2022-09-30T05:58:59;11.50;99.90
14099;DHT22;7126;48.458;7.930;2022-09-30T06:01:25;11.40;99.90
14099;DHT22;7126;48.458;7.930;2022-09-30T06:03:51;11.50;99.90
14099;DHT22;7126;48.458;7.930;2022-09-30T06:06:17;11.50;99.90
14099;DHT22;7126;48.458;7.930;2022-09-30T06:08:44;11.50;99.90
14099;DHT22;7126;48.458;7.930;2022-09-30T06:11:12;11.50;99.90
14099;DHT22;7126;48.458;7.930;2022-09-30T06:13:39;11.50;99.90
14099;DHT22;7126;48.458;7.930;2022-09-30T06:16:05;11.50;99.90
14099;DHT22;7126;48.458;7.930;2022-09-30T06:18:31;11.50;99.90
14099;DHT22;7126;48.458;7.930;2022-09-30T06:21:02;11.40;99.90
14099;DHT22;7126;48.458;7.930;2022-09-30T06:23:29;11.40;99.90
14099;DHT22;7126;48.458;7.930;2022-09-30T06:25:55;11.50;99.90
14099;DHT22;7126;48.458;7.930;2022-09-30T06:28:21;11.60;99.90
14099;DHT22;7126;48.458;7.930;2022-09-30T06:30:47;11.60;99.90
14099;DHT22;7126;48.458;7.930;2022-09-30T06:33:14;11.70;99.90
14099;DHT22;7126;48.458;7.930;2022-09-30T06:35:43;11.70;99.90
14099;DHT22;7126;48.458;7.930;2022-09-30T06:38:10;11.70;99.90
14099;DHT22;7126;48.458;7.930;2022-09-30T06:40:36;11.80;99.90
14099;DHT22;7126;48.458;7.930;2022-09-30T06:43:03;11.80;99.90
14099;DHT22;7126;48.458;7.930;2022-09-30T06:45:29;11.90;99.90
14099;DHT22;7126;48.458;7.930;2022-09-30T06:47:58;11.90;99.90
14099;DHT22;7126;48.458;7.930;2022-09-30T06:50:24;11.90;99.90
14099;DHT22;7126;48.458;7.930;2022-09-30T06:52:49;11.80;99.90
14099;DHT22;7126;48.458;7.930;2022-09-30T06:55:16;11.80;99.90
14099;DHT22;7126;48.458;7.930;2022-09-30T06:57:43;11.80;99.90
14099;DHT22;7126;48.458;7.930;2022-09-30T07:00:11;11.80;99.90
14099;DHT22;7126;48.458;7.930;2022-09-30T07:02:36;11.70;99.90
14099;DHT22;7126;48.458;7.930;2022-09-30T07:05:03;11.70;99.90
14099;DHT22;7126;48.458;7.930;2022-09-30T07:07:29;11.60;99.90
14099;DHT22;7126;48.458;7.930;2022-09-30T07:09:57;11.60;99.90
14099;DHT22;7126;48.458;7.930;2022-09-30T07:12:23;11.60;99.90
14099;DHT22;7126;48.458;7.930;2022-09-30T07:14:49;11.60;99.90
14099;DHT22;7126;48.458;7.930;2022-09-30T07:17:15;11.50;99.90
14099;DHT22;7126;48.458;7.930;2022-09-30T07:19:41;11.50;99.90
14099;DHT22;7126;48.458;7.930;2022-09-30T07:22:06;11.60;99.90
14099;DHT22;7126;48.458;7.930;2022-09-30T07:24:50;11.60;99.90
14099;DHT22;7126;48.458;7.930;2022-09-30T07:27:16;11.60;99.90
14099;DHT22;7126;48.458;7.930;2022-09-30T07:29:44;11.50;99.90
14099;DHT22;7126;48.458;7.930;2022-09-30T07:32:10;11.50;99.90
14099;DHT22;7126;48.458;7.930;2022-09-30T07:34:36;11.50;99.90
14099;DHT22;7126;48.458;7.930;2022-09-30T07:37:02;11.60;99.90
14099;DHT22;7126;48.458;7.930;2022-09-30T07:39:28;11.40;99.90
14099;DHT22;7126;48.458;7.930;2022-09-30T07:41:54;11.30;99.90
14099;DHT22;7126;48.458;7.930;2022-09-30T07:44:19;11.40;99.90
14099;DHT22;7126;48.458;7.930;2022-09-30T07:46:45;11.50;99.90
14099;DHT22;7126;48.458;7.930;2022-09-30T07:49:16;11.50;99.90
14099;DHT22;7126;48.458;7.930;2022-09-30T07:51:48;11.50;99.90
14099;DHT22;7126;48.458;7.930;2022-09-30T07:54:17;11.70;99.90
14099;DHT22;7126;48.458;7.930;2022-09-30T07:56:44;11.70;99.90
14099;DHT22;7126;48.458;7.930;2022-09-30T07:59:10;11.80;99.90
14099;DHT22;7126;48.458;7.930;2022-09-30T08:01:36;11.80;99.90
14099;DHT22;7126;48.458;7.930;2022-09-30T08:04:04;11.80;99.90
14099;DHT22;7126;48.458;7.930;2022-09-30T08:06:31;11.90;99.90
14099;DHT22;7126;48.458;7.930;2022-09-30T08:08:57;11.80;99.90
14099;DHT22;7126;48.458;7.930;2022-09-30T08:11:24;11.90;99.90
14099;DHT22;7126;48.458;7.930;2022-09-30T08:13:54;11.90;99.90
14099;DHT22;7126;48.458;7.930;2022-09-30T08:16:21;11.90;99.90
14099;DHT22;7126;48.458;7.930;2022-09-30T08:18:47;12.00;99.90
14099;DHT22;7126;48.458;7.930;2022-09-30T08:21:13;12.00;99.90
14099;DHT22;7126;48.458;7.930;2022-09-30T08:23:40;12.10;99.90
14099;DHT22;7126;48.458;7.930;2022-09-30T08:26:10;12.20;99.90
14099;DHT22;7126;48.458;7.930;2022-09-30T08:28:37;12.20;99.90
14099;DHT22;7126;48.458;7.930;2022-09-30T08:31:08;12.20;99.90
14099;DHT22;7126;48.458;7.930;2022-09-30T08:33:35;12.20;99.90
14099;DHT22;7126;48.458;7.930;2022-09-30T08:36:04;12.30;99.90
14099;DHT22;7126;48.458;7.930;2022-09-30T08:38:30;12.30;99.90
14099;DHT22;7126;48.458;7.930;2022-09-30T08:47:25;12.00;99.90
14099;DHT22;7126;48.458;7.930;2022-09-30T08:49:53;12.00;99.90
14099;DHT22;7126;48.458;7.930;2022-09-30T08:52:35;12.10;99.90
14099;DHT22;7126;48.458;7.930;2022-09-30T08:55:03;12.20;99.90
14099;DHT22;7126;48.458;7.930;2022-09-30T08:57:39;12.40;99.90
14099;DHT22;7126;48.458;7.930;2022-09-30T09:00:11;12.50;99.90
14099;DHT22;7126;48.458;7.930;2022-09-30T09:02:47;12.50;99.90
14099;DHT22;7126;48.458;7.930;2022-09-30T09:05:40;12.60;99.90
14099;DHT22;7126;48.458;7.930;2022-09-30T09:08:16;12.70;99.90
14099;DHT22;7126;48.458;7.930;2022-09-30T09:10:47;12.70;99.90
14099;DHT22;7126;48.458;7.930;2022-09-30T09:13:43;12.80;99.90
14099;DHT22;7126;48.458;7.930;2022-09-30T09:16:26;12.80;99.90
14099;DHT22;7126;48.458;7.930;2022-09-30T09:24:14;12.90;99.90
14099;DHT22;7126;48.458;7.930;2022-09-30T09:26:40;12.90;99.90
14099;DHT22;7126;48.458;7.930;2022-09-30T09:29:19;12.90;99.90
14099;DHT22;7126;48.458;7.930;2022-09-30T09:31:46;12.90;99.90
14099;DHT22;7126;48.458;7.930;2022-09-30T09:34:13;12.90;99.90
14099;DHT22;7126;48.458;7.930;2022-09-30T09:36:48;12.90;99.90
14099;DHT22;7126;48.458;7.930;2022-09-30T09:39:31;13.00;99.90
14099;DHT22;7126;48.458;7.930;2022-09-30T09:44:56;13.10;99.90
14099;DHT22;7126;48.458;7.930;2022-09-30T09:47:24;13.10;99.90
14099;DHT22;7126;48.458;7.930;2022-09-30T09:49:57;13.20;99.90
14099;DHT22;7126;48.458;7.930;2022-09-30T09:54:51;13.20;99.90
14099;DHT22;7126;48.458;7.930;2022-09-30T09:57:22;13.30;99.90
14099;DHT22;7126;48.458;7.930;2022-09-30T09:59:55;13.30;99.90
14099;DHT22;7126;48.458;7.930;2022-09-30T10:02:26;13.40;99.90
14099;DHT22;7126;48.458;7.930;2022-09-30T10:04:52;13.50;99.90
14099;DHT22;7126;48.458;7.930;2022-09-30T10:07:25;13.40;99.90
14099;DHT22;7126;48.458;7.930;2022-09-30T10:10:17;13.20;99.90
14099;DHT22;7126;48.458;7.930;2022-09-30T10:12:44;13.20;99.90
14099;DHT22;7126;48.458;7.930;2022-09-30T10:15:21;13.20;99.90
14099;DHT22;7126;48.458;7.930;2022-09-30T10:17:53;13.20;99.90
14099;DHT22;7126;48.458;7.930;2022-09-30T10:20:32;13.20;99.90
14099;DHT22;7126;48.458;7.930;2022-09-30T10:23:18;13.30;99.90
14099;DHT22;7126;48.458;7.930;2022-09-30T10:28:57;13.30;99.90
14099;DHT22;7126;48.458;7.930;2022-09-30T10:31:32;13.40;99.90
14099;DHT22;7126;48.458;7.930;2022-09-30T10:34:08;13.50;99.90
14099;DHT22;7126;48.458;7.930;2022-09-30T10:36:36;13.50;99.90
14099;DHT22;7126;48.458;7.930;2022-09-30T10:39:31;13.50;99.90
14099;DHT22;7126;48.458;7.930;2022-09-30T10:44:44;13.70;99.90
14099;DHT22;7126;48.458;7.930;2022-09-30T10:47:15;13.80;99.90
14099;DHT22;7126;48.458;7.930;2022-09-30T10:49:49;13.90;99.90
14099;DHT22;7126;48.458;7.930;2022-09-30T10:52:19;14.10;99.90
14099;DHT22;7126;48.458;7.930;2022-09-30T10:54:54;14.10;99.90
14099;DHT22;7126;48.458;7.930;2022-09-30T10:57:28;14.00;99.90
14099;DHT22;7126;48.458;7.930;2022-09-30T10:59:59;14.00;99.90
14099;DHT22;7126;48.458;7.930;2022-09-30T11:02:57;14.00;99.90
14099;DHT22;7126;48.458;7.930;2022-09-30T11:08:43;14.50;99.90
14099;DHT22;7126;48.458;7.930;2022-09-30T11:10:51;14.50;99.90
14099;DHT22;7126;48.458;7.930;2022-09-30T11:13:37;14.50;99.90
14099;DHT22;7126;48.458;7.930;2022-09-30T11:16:08;14.50;99.90
14099;DHT22;7126;48.458;7.930;2022-09-30T11:18:58;14.60;99.90
14099;DHT22;7126;48.458;7.930;2022-09-30T11:21:33;14.80;99.90
14099;DHT22;7126;48.458;7.930;2022-09-30T11:30:10;15.70;99.90
14099;DHT22;7126;48.458;7.930;2022-09-30T11:39:16;16.00;99.90
14099;DHT22;7126;48.458;7.930;2022-09-30T11:41:25;16.10;99.90
14099;DHT22;7126;48.458;7.930;2022-09-30T11:44:17;16.20;99.90
14099;DHT22;7126;48.458;7.930;2022-09-30T11:58:56;16.90;99.90
14099;DHT22;7126;48.458;7.930;2022-09-30T12:01:30;17.10;99.90
14099;DHT22;7126;48.458;7.930;2022-09-30T12:04:26;17.40;99.90
14099;DHT22;7126;48.458;7.930;2022-09-30T12:07:16;17.60;99.90
14099;DHT22;7126;48.458;7.930;2022-09-30T12:09:46;17.90;99.90
14099;DHT22;7126;48.458;7.930;2022-09-30T12:12:16;18.00;99.90
14099;DHT22;7126;48.458;7.930;2022-09-30T12:14:50;18.10;99.90
14099;DHT22;7126;48.458;7.930;2022-09-30T12:17:37;18.10;99.90
14099;DHT22;7126;48.458;7.930;2022-09-30T12:23:01;18.40;99.90
14099;DHT22;7126;48.458;7.930;2022-09-30T12:25:43;18.50;99.90
14099;DHT22;7126;48.458;7.930;2022-09-30T12:28:28;18.70;99.90
14099;DHT22;7126;48.458;7.930;2022-09-30T12:34:10;18.90;99.90
14099;DHT22;7126;48.458;7.930;2022-09-30T12:36:44;19.10;99.90
14099;DHT22;7126;48.458;7.930;2022-09-30T12:39:25;19.10;99.90
14099;DHT22;7126;48.458;7.930;2022-09-30T12:47:59;19.40;99.90
14099;DHT22;7126;48.458;7.930;2022-09-30T12:50:31;19.10;99.90
14099;DHT22;7126;48.458;7.930;2022-09-30T12:53:15;19.30;99.90
14099;DHT22;7126;48.458;7.930;2022-09-30T12:55:42;19.30;99.90
14099;DHT22;7126;48.458;7.930;2022-09-30T12:58:24;19.50;99.90
14099;DHT22;7126;48.458;7.930;2022-09-30T13:01:03;19.70;99.90
14099;DHT22;7126;48.458;7.930;2022-09-30T13:04:43;19.90;99.90
14099;DHT22;7126;48.458;7.930;2022-09-30T13:09:30;20.00;99.90
14099;DHT22;7126;48.458;7.930;2022-09-30T13:14:48;20.20;99.90
14099;DHT22;7126;48.458;7.930;2022-09-30T13:19:50;20.10;99.90
14099;DHT22;7126;48.458;7.930;2022-09-30T13:27:43;20.20;99.90
14099;DHT22;7126;48.458;7.930;2022-09-30T13:33:03;20.50;99.90
14099;DHT22;7126;48.458;7.930;2022-09-30T13:40:50;20.40;99.90
14099;DHT22;7126;48.458;7.930;2022-09-30T13:43:27;20.60;99.90
14099;DHT22;7126;48.458;7.930;2022-09-30T13:45:56;20.70;99.90
14099;DHT22;7126;48.458;7.930;2022-09-30T13:48:27;20.70;99.90
14099;DHT22;7126;48.458;7.930;2022-09-30T13:50:56;20.80;99.90
14099;DHT22;7126;48.458;7.930;2022-09-30T13:53:31;20.80;99.90
14099;DHT22;7126;48.458;7.930;2022-09-30T13:56:00;20.80;99.90
14099;DHT22;7126;48.458;7.930;2022-09-30T13:58:42;20.80;99.90
14099;DHT22;7126;48.458;7.930;2022-09-30T14:21:32;19.70;99.90
14099;DHT22;7126;48.458;7.930;2022-09-30T14:24:09;19.90;99.90
14099;DHT22;7126;48.458;7.930;2022-09-30T14:26:49;20.00;99.90
14099;DHT22;7126;48.458;7.930;2022-09-30T14:29:26;20.10;99.90
14099;DHT22;7126;48.458;7.930;2022-09-30T14:31:56;19.90;99.90
14099;DHT22;7126;48.458;7.930;2022-09-30T14:34:24;19.90;99.90
14099;DHT22;7126;48.458;7.930;2022-09-30T14:36:52;19.80;99.90
14099;DHT22;7126;48.458;7.930;2022-09-30T14:39:26;19.70;99.90
14099;DHT22;7126;48.458;7.930;2022-09-30T14:41:58;19.80;99.90
14099;DHT22;7126;48.458;7.930;2022-09-30T14:44:29;19.90;99.90
14099;DHT22;7126;48.458;7.930;2022-09-30T14:46:58;19.80;99.90
14099;DHT22;7126;48.458;7.930;2022-09-30T14:49:29;19.70;99.90
14099;DHT22;7126;48.458;7.930;2022-09-30T14:51:59;19.40;99.90
14099;DHT22;7126;48.458;7.930;2022-09-30T14:54:28;19.10;99.90
14099;DHT22;7126;48.458;7.930;2022-09-30T14:56:55;18.70;99.90
14099;DHT22;7126;48.458;7.930;2022-09-30T14:59:22;18.70;99.90
14099;DHT22;7126;48.458;7.930;2022-09-30T15:01:54;18.70;99.90
14099;DHT22;7126;48.458;7.930;2022-09-30T15:04:31;18.50;99.90
14099;DHT22;7126;48.458;7.930;2022-09-30T15:06:58;18.60;99.90
14099;DHT22;7126;48.458;7.930;2022-09-30T15:09:33;18.60;99.90
14099;DHT22;7126;48.458;7.930;2022-09-30T15:14:29;18.40;99.90
14099;DHT22;7126;48.458;7.930;2022-09-30T15:16:57;18.20;99.90
14099;DHT22;7126;48.458;7.930;2022-09-30T15:19:30;18.10;99.90
14099;DHT22;7126;48.458;7.930;2022-09-30T15:22:01;18.00;99.90
14099;DHT22;7126;48.458;7.930;2022-09-30T15:24:29;18.00;99.90
14099;DHT22;7126;48.458;7.930;2022-09-30T15:26:56;17.90;99.90
14099;DHT22;7126;48.458;7.930;2022-09-30T15:29:22;17.90;99.90
14099;DHT22;7126;48.458;7.930;2022-09-30T15:32:00;17.90;99.90
14099;DHT22;7126;48.458;7.930;2022-09-30T15:34:26;17.70;99.90
14099;DHT22;7126;48.458;7.930;2022-09-30T15:37:01;17.70;99.90
14099;DHT22;7126;48.458;7.930;2022-09-30T15:39:39;17.60;99.90
14099;DHT22;7126;48.458;7.930;2022-09-30T15:42:57;17.50;99.90
14099;DHT22;7126;48.458;7.930;2022-09-30T15:45:39;17.50;99.90
14099;DHT22;7126;48.458;7.930;2022-09-30T15:50:54;17.40;99.90
14099;DHT22;7126;48.458;7.930;2022-09-30T15:53:30;17.30;99.90
14099;DHT22;7126;48.458;7.930;2022-09-30T15:55:58;17.20;99.90
14099;DHT22;7126;48.458;7.930;2022-09-30T15:58:34;17.10;99.90
14099;DHT22;7126;48.458;7.930;2022-09-30T16:03:59;16.90;99.90
14099;DHT22;7126;48.458;7.930;2022-09-30T16:06:44;16.80;99.90
14099;DHT22;7126;48.458;7.930;2022-09-30T16:11:44;16.60;99.90
14099;DHT22;7126;48.458;7.930;2022-09-30T16:14:24;16.60;99.90
14099;DHT22;7126;48.458;7.930;2022-09-30T16:16:53;16.50;99.90
14099;DHT22;7126;48.458;7.930;2022-09-30T16:19:20;16.50;99.90
14099;DHT22;7126;48.458;7.930;2022-09-30T16:21:49;16.50;99.90
14099;DHT22;7126;48.458;7.930;2022-09-30T16:26:58;16.40;99.90
14099;DHT22;7126;48.458;7.930;2022-09-30T16:29:26;16.20;99.90
14099;DHT22;7126;48.458;7.930;2022-09-30T16:31:55;16.10;99.90
14099;DHT22;7126;48.458;7.930;2022-09-30T16:34:26;16.00;99.90
14099;DHT22;7126;48.458;7.930;2022-09-30T16:36:53;16.00;99.90
14099;DHT22;7126;48.458;7.930;2022-09-30T16:39:19;15.90;99.90
14099;DHT22;7126;48.458;7.930;2022-09-30T16:41:45;15.80;99.90
14099;DHT22;7126;48.458;7.930;2022-09-30T16:44:11;15.70;99.90
14099;DHT22;7126;48.458;7.930;2022-09-30T16:46:37;15.70;99.90
14099;DHT22;7126;48.458;7.930;2022-09-30T16:49:15;15.50;99.90
14099;DHT22;7126;48.458;7.930;2022-09-30T16:51:41;15.40;99.90
14099;DHT22;7126;48.458;7.930;2022-09-30T16:54:07;15.30;99.90
14099;DHT22;7126;48.458;7.930;2022-09-30T16:56:33;15.20;99.90
14099;DHT22;7126;48.458;7.930;2022-09-30T16:58:59;15.10;99.90
14099;DHT22;7126;48.458;7.930;2022-09-30T17:01:25;15.00;99.90
14099;DHT22;7126;48.458;7.930;2022-09-30T17:03:55;14.90;99.90
14099;DHT22;7126;48.458;7.930;2022-09-30T17:06:27;14.80;99.90
14099;DHT22;7126;48.458;7.930;2022-09-30T17:08:53;14.60;99.90
14099;DHT22;7126;48.458;7.930;2022-09-30T17:11:21;14.50;99.90
14099;DHT22;7126;48.458;7.930;2022-09-30T17:13:51;14.50;99.90
14099;DHT22;7126;48.458;7.930;2022-09-30T17:16:16;14.40;99.90
14099;DHT22;7126;48.458;7.930;2022-09-30T17:18:42;14.30;99.90
14099;DHT22;7126;48.458;7.930;2022-09-30T17:21:08;14.30;99.90
14099;DHT22;7126;48.458;7.930;2022-09-30T17:23:33;14.20;99.90
14099;DHT22;7126;48.458;7.930;2022-09-30T17:25:59;14.10;99.90
14099;DHT22;7126;48.458;7.930;2022-09-30T17:28:24;14.00;99.90
14099;DHT22;7126;48.458;7.930;2022-09-30T17:30:50;14.00;99.90
14099;DHT22;7126;48.458;7.930;2022-09-30T17:33:16;14.00;99.90
14099;DHT22;7126;48.458;7.930;2022-09-30T17:35:44;13.90;99.90
14099;DHT22;7126;48.458;7.930;2022-09-30T17:38:12;13.90;99.90
14099;DHT22;7126;48.458;7.930;2022-09-30T17:40:38;13.90;99.90
14099;DHT22;7126;48.458;7.930;2022-09-30T17:43:22;13.90;99.90
14099;DHT22;7126;48.458;7.930;2022-09-30T17:45:48;13.80;99.90
14099;DHT22;7126;48.458;7.930;2022-09-30T17:48:17;13.70;99.90
14099;DHT22;7126;48.458;7.930;2022-09-30T17:50:45;13.70;99.90
14099;DHT22;7126;48.458;7.930;2022-09-30T17:53:12;13.60;99.90
14099;DHT22;7126;48.458;7.930;2022-09-30T17:55:39;13.50;99.90
14099;DHT22;7126;48.458;7.930;2022-09-30T17:58:06;13.40;99.90
14099;DHT22;7126;48.458;7.930;2022-09-30T18:00:34;13.30;99.90
14099;DHT22;7126;48.458;7.930;2022-09-30T18:03:00;13.30;99.90
14099;DHT22;7126;48.458;7.930;2022-09-30T18:05:27;13.40;99.90
14099;DHT22;7126;48.458;7.930;2022-09-30T18:07:52;13.40;99.90
14099;DHT22;7126;48.458;7.930;2022-09-30T18:10:18;13.30;99.90
14099;DHT22;7126;48.458;7.930;2022-09-30T18:12:44;13.30;99.90
14099;DHT22;7126;48.458;7.930;2022-09-30T18:15:14;13.20;99.90
14099;DHT22;7126;48.458;7.930;2022-09-30T18:17:41;13.20;99.90
14099;DHT22;7126;48.458;7.930;2022-09-30T18:20:07;13.10;99.90
14099;DHT22;7126;48.458;7.930;2022-09-30T18:22:32;13.00;99.90
14099;DHT22;7126;48.458;7.930;2022-09-30T18:24:58;12.90;99.90
14099;DHT22;7126;48.458;7.930;2022-09-30T18:27:42;12.90;99.90
14099;DHT22;7126;48.458;7.930;2022-09-30T18:30:08;12.90;99.90
14099;DHT22;7126;48.458;7.930;2022-09-30T18:32:36;12.90;99.90
14099;DHT22;7126;48.458;7.930;2022-09-30T18:35:01;12.80;99.90
14099;DHT22;7126;48.458;7.930;2022-09-30T18:37:31;12.80;99.90
14099;DHT22;7126;48.458;7.930;2022-09-30T18:39:58;12.70;99.90
14099;DHT22;7126;48.458;7.930;2022-09-30T18:42:23;12.60;99.90
14099;DHT22;7126;48.458;7.930;2022-09-30T18:44:49;12.70;99.90